createdAt,value
2018-09-01T00:00:33.929Z,101492.33
2018-09-01T00:01:37.360Z,101487.45
2018-09-01T00:02:40.786Z,101496.72
2018-09-01T00:03:44.236Z,101502.82
2018-09-01T00:04:47.648Z,101493.06
2018-09-01T00:05:51.078Z,101492.81
2018-09-01T00:06:54.796Z,101489.08
2018-09-01T00:07:58.219Z,101494.69
2018-09-01T00:09:01.696Z,101488.02
2018-09-01T00:10:05.421Z,101499.32
2018-09-01T00:11:08.841Z,101494.61
2018-09-01T00:12:12.288Z,101493.47
2018-09-01T00:13:15.665Z,101490.54
2018-09-01T00:14:19.093Z,101489.48
2018-09-01T00:15:22.469Z,101494.85
2018-09-01T00:16:25.885Z,101494.61
2018-09-01T00:17:30.500Z,101495.42
2018-09-01T00:18:33.880Z,101493.22
2018-09-01T00:19:37.273Z,101498.19
2018-09-01T00:20:40.694Z,101496.56
2018-09-01T00:21:44.100Z,101500.14
2018-09-01T00:22:47.492Z,101501.52
2018-09-01T00:23:50.903Z,101505.34
2018-09-01T00:24:54.337Z,101508.67
2018-09-01T00:25:57.732Z,101507.30
2018-09-01T00:27:01.115Z,101505.67
2018-09-01T00:28:04.551Z,101507.86
2018-09-01T00:29:07.952Z,101507.05
2018-09-01T00:30:11.396Z,101514.77
2018-09-01T00:31:14.836Z,101508.19
2018-09-01T00:32:18.412Z,101505.42
2018-09-01T00:33:21.816Z,101516.16
2018-09-01T00:34:25.212Z,101507.86
2018-09-01T00:35:28.613Z,101508.75
2018-09-01T00:36:32.055Z,101509.81
2018-09-01T00:37:40.772Z,101507.86
2018-09-01T00:38:49.572Z,101504.53
2018-09-01T00:39:52.989Z,101497.05
2018-09-01T00:40:57.388Z,101505.09
2018-09-01T00:42:00.815Z,101502.33
2018-09-01T00:43:04.322Z,101500.38
2018-09-01T00:44:07.729Z,101501.27
2018-09-01T00:45:11.113Z,101504.28
2018-09-01T00:46:14.567Z,101507.05
2018-09-01T00:47:18.016Z,101503.47
2018-09-01T00:48:21.390Z,101506.23
2018-09-01T00:49:24.807Z,101508.19
2018-09-01T00:50:28.209Z,101510.14
2018-09-01T00:51:31.654Z,101510.14
2018-09-01T00:52:35.072Z,101519.25
2018-09-01T00:53:38.449Z,101517.05
2018-09-01T00:54:41.830Z,101513.47
2018-09-01T00:55:45.243Z,101513.23
2018-09-01T00:56:48.586Z,101513.80
2018-09-01T00:57:51.983Z,101509.41
2018-09-01T00:58:55.411Z,101516.56
2018-09-01T00:59:58.885Z,101519.08
2018-09-01T01:01:02.268Z,101510.55
2018-09-01T01:02:05.692Z,101518.84
2018-09-01T01:03:09.126Z,101522.42
2018-09-01T01:04:12.508Z,101513.88
2018-09-01T01:05:15.909Z,101520.22
2018-09-01T01:06:19.259Z,101516.64
2018-09-01T01:07:22.615Z,101524.13
2018-09-01T01:08:26.081Z,101524.61
2018-09-01T01:09:29.468Z,101509.38
2018-09-01T01:10:32.877Z,101521.36
2018-09-01T01:11:36.270Z,101519.73
2018-09-01T01:12:39.670Z,101522.73
2018-09-01T01:13:43.076Z,101521.93
2018-09-01T01:14:46.489Z,101526.64
2018-09-01T01:15:49.846Z,101528.02
2018-09-01T01:16:53.284Z,101523.88
2018-09-01T01:17:56.736Z,101518.92
2018-09-01T01:19:00.118Z,101521.11
2018-09-01T01:20:03.519Z,101525.02
2018-09-01T01:21:06.940Z,101524.45
2018-09-01T01:22:10.372Z,101524.45
2018-09-01T01:23:13.770Z,101526.64
2018-09-01T01:24:17.194Z,101519.73
2018-09-01T01:25:20.578Z,101531.03
2018-09-01T01:26:23.989Z,101521.11
2018-09-01T01:27:28.227Z,101522.50
2018-09-01T01:28:31.640Z,101524.69
2018-09-01T01:29:35.059Z,101521.03
2018-09-01T01:30:38.473Z,101528.52
2018-09-01T01:31:41.914Z,101522.17
2018-09-01T01:32:45.296Z,101525.75
2018-09-01T01:33:48.712Z,101519.41
2018-09-01T01:34:52.100Z,101523.23
2018-09-01T01:35:55.599Z,101521.84
2018-09-01T01:36:58.996Z,101522.73
2018-09-01T01:38:02.386Z,101523.06
2018-09-01T01:39:06.984Z,101523.63
2018-09-01T01:40:10.439Z,101517.62
2018-09-01T01:41:13.826Z,101522.33
2018-09-01T01:42:18.336Z,101520.70
2018-09-01T01:43:21.732Z,101522.38
2018-09-01T01:44:25.161Z,101522.38
2018-09-01T01:45:30.036Z,101522.45
2018-09-01T01:46:33.426Z,101520.27
2018-09-01T01:47:40.555Z,101520.02
2018-09-01T01:48:43.975Z,101523.92
2018-09-01T01:49:47.366Z,101528.06
2018-09-01T01:50:50.759Z,101525.05
2018-09-01T01:51:54.130Z,101528.95
2018-09-01T01:52:57.548Z,101528.71
2018-09-01T01:54:00.948Z,101512.90
2018-09-01T01:55:04.392Z,101522.45
2018-09-01T01:56:07.816Z,101526.59
2018-09-01T01:57:11.225Z,101530.98
2018-09-01T01:58:14.648Z,101527.98
2018-09-01T01:59:18.002Z,101530.41
2018-09-01T02:00:21.400Z,101528.22
2018-09-01T02:01:24.831Z,101516.55
2018-09-01T02:02:28.252Z,101520.73
2018-09-01T02:03:31.645Z,101522.94
2018-09-01T02:04:35.191Z,101513.66
2018-09-01T02:05:38.603Z,101524.81
2018-09-01T02:06:42.085Z,101523.67
2018-09-01T02:07:45.903Z,101520.09
2018-09-01T02:08:49.327Z,101519.28
2018-09-01T02:09:52.698Z,101525.05
2018-09-01T02:10:56.223Z,101519.77
2018-09-01T02:11:59.691Z,101525.63
2018-09-01T02:13:03.117Z,101516.03
2018-09-01T02:14:06.880Z,101517.90
2018-09-01T02:15:10.287Z,101517.66
2018-09-01T02:16:13.714Z,101520.98
2018-09-01T02:17:17.141Z,101516.03
2018-09-01T02:18:20.553Z,101512.20
2018-09-01T02:19:23.960Z,101522.94
2018-09-01T02:20:27.373Z,101513.39
2018-09-01T02:21:30.753Z,101507.61
2018-09-01T02:22:34.160Z,101512.77
2018-09-01T02:23:37.556Z,101516.92
2018-09-01T02:24:40.948Z,101517.16
2018-09-01T02:25:44.335Z,101513.02
2018-09-01T02:26:47.678Z,101518.80
2018-09-01T02:27:51.084Z,101520.17
2018-09-01T02:28:54.454Z,101516.27
2018-09-01T02:29:58.292Z,101517.41
2018-09-01T02:31:01.671Z,101518.22
2018-09-01T02:32:05.042Z,101518.80
2018-09-01T02:33:08.482Z,101522.61
2018-09-01T02:34:11.990Z,101525.37
2018-09-01T02:35:15.378Z,101521.31
2018-09-01T02:36:18.787Z,101524.89
2018-09-01T02:37:22.239Z,101522.13
2018-09-01T02:38:25.640Z,101524.32
2018-09-01T02:39:29.054Z,101520.30
2018-09-01T02:40:32.465Z,101525.45
2018-09-01T02:41:36.036Z,101524.32
2018-09-01T02:42:39.470Z,101529.36
2018-09-01T02:43:42.854Z,101528.78
2018-09-01T02:44:46.251Z,101526.27
2018-09-01T02:45:49.662Z,101528.78
2018-09-01T02:46:53.048Z,101530.73
2018-09-01T02:47:56.485Z,101521.63
2018-09-01T02:48:59.869Z,101520.58
2018-09-01T02:50:03.290Z,101521.76
2018-09-01T02:51:06.700Z,101530.25
2018-09-01T02:52:10.186Z,101521.68
2018-09-01T02:53:13.606Z,101520.70
2018-09-01T02:54:17.036Z,101528.59
2018-09-01T02:55:20.451Z,101528.59
2018-09-01T02:56:23.885Z,101531.35
2018-09-01T02:57:27.348Z,101530.30
2018-09-01T02:58:30.757Z,101530.86
2018-09-01T02:59:34.162Z,101527.53
2018-09-01T03:00:38.458Z,101522.65
2018-09-01T03:01:41.881Z,101528.42
2018-09-01T03:02:46.117Z,101525.66
2018-09-01T03:03:49.518Z,101526.80
2018-09-01T03:04:52.932Z,101528.17
2018-09-01T03:05:56.318Z,101529.56
2018-09-01T03:07:00.976Z,101531.75
2018-09-01T03:08:04.421Z,101530.94
2018-09-01T03:09:08.106Z,101530.38
2018-09-01T03:10:11.527Z,101527.36
2018-09-01T03:11:14.941Z,101532.89
2018-09-01T03:12:18.294Z,101532.89
2018-09-01T03:13:21.696Z,101529.31
2018-09-01T03:14:26.185Z,101532.64
2018-09-01T03:15:29.581Z,101534.27
2018-09-01T03:16:33.006Z,101534.02
2018-09-01T03:17:36.432Z,101532.08
2018-09-01T03:18:39.843Z,101536.22
2018-09-01T03:19:43.268Z,101536.79
2018-09-01T03:20:46.671Z,101539.30
2018-09-01T03:21:50.089Z,101525.88
2018-09-01T03:22:53.489Z,101526.20
2018-09-01T03:23:56.897Z,101534.67
2018-09-01T03:25:00.322Z,101542.71
2018-09-01T03:26:03.713Z,101534.79
2018-09-01T03:27:07.164Z,101542.47
2018-09-01T03:28:10.538Z,101541.08
2018-09-01T03:29:13.976Z,101541.08
2018-09-01T03:30:17.396Z,101547.75
2018-09-01T03:31:20.860Z,101541.97
2018-09-01T03:32:24.253Z,101546.69
2018-09-01T03:33:27.630Z,101545.30
2018-09-01T03:34:31.056Z,101547.80
2018-09-01T03:35:34.463Z,101549.73
2018-09-01T03:36:37.853Z,101545.34
2018-09-01T03:37:41.271Z,101552.50
2018-09-01T03:38:44.656Z,101542.66
2018-09-01T03:39:48.091Z,101545.59
2018-09-01T03:40:51.458Z,101548.36
2018-09-01T03:41:54.868Z,101545.10
2018-09-01T03:42:58.272Z,101540.64
2018-09-01T03:44:01.685Z,101548.36
2018-09-01T03:45:05.102Z,101544.78
2018-09-01T03:46:08.492Z,101538.84
2018-09-01T03:47:11.883Z,101553.31
2018-09-01T03:48:15.354Z,101549.73
2018-09-01T03:49:18.757Z,101543.23
2018-09-01T03:50:22.182Z,101552.50
2018-09-01T03:51:25.756Z,101554.20
2018-09-01T03:52:29.132Z,101561.04
2018-09-01T03:53:32.516Z,101549.32
2018-09-01T03:54:35.920Z,101553.07
2018-09-01T03:55:39.344Z,101557.78
2018-09-01T03:56:42.745Z,101559.73
2018-09-01T03:57:46.295Z,101554.77
2018-09-01T03:58:49.826Z,101556.16
2018-09-01T03:59:53.226Z,101554.52
2018-09-01T04:00:56.713Z,101558.92
2018-09-01T04:02:00.134Z,101548.26
2018-09-01T04:03:03.552Z,101556.97
2018-09-01T04:04:06.940Z,101562.50
2018-09-01T04:05:10.341Z,101557.22
2018-09-01T04:06:13.754Z,101551.84
2018-09-01T04:07:17.268Z,101553.88
2018-09-01T04:08:20.654Z,101556.41
2018-09-01T04:09:24.050Z,101552.25
2018-09-01T04:10:27.461Z,101548.75
2018-09-01T04:11:30.914Z,101551.13
2018-09-01T04:12:34.382Z,101558.28
2018-09-01T04:13:37.749Z,101550.62
2018-09-01T04:14:41.168Z,101553.64
2018-09-01T04:15:44.550Z,101557.78
2018-09-01T04:16:47.991Z,101555.66
2018-09-01T04:17:51.364Z,101555.17
2018-09-01T04:18:54.738Z,101557.53
2018-09-01T04:19:58.137Z,101563.31
2018-09-01T04:21:01.607Z,101563.70
2018-09-01T04:22:05.069Z,101558.67
2018-09-01T04:23:08.424Z,101569.72
2018-09-01T04:24:11.956Z,101565.83
2018-09-01T04:25:15.345Z,101564.20
2018-09-01T04:26:18.741Z,101565.83
2018-09-01T04:27:22.195Z,101565.09
2018-09-01T04:28:25.606Z,101568.91
2018-09-01T04:29:29.019Z,101565.90
2018-09-01T04:30:32.437Z,101564.27
2018-09-01T04:31:35.866Z,101567.28
2018-09-01T04:32:39.263Z,101561.09
2018-09-01T04:33:42.642Z,101568.98
2018-09-01T04:34:46.049Z,101567.35
2018-09-01T04:35:49.461Z,101568.41
2018-09-01T04:36:52.887Z,101561.09
2018-09-01T04:37:56.317Z,101563.14
2018-09-01T04:38:59.751Z,101562.47
2018-09-01T04:40:03.160Z,101568.17
2018-09-01T04:41:06.643Z,101564.02
2018-09-01T04:42:10.052Z,101573.13
2018-09-01T04:43:13.688Z,101575.89
2018-09-01T04:44:17.072Z,101567.35
2018-09-01T04:45:20.558Z,101581.98
2018-09-01T04:46:24.165Z,101585.06
2018-09-01T04:47:27.587Z,101579.86
2018-09-01T04:48:31.016Z,101577.34
2018-09-01T04:49:34.404Z,101583.44
2018-09-01T04:50:37.863Z,101585.63
2018-09-01T04:51:41.259Z,101587.58
2018-09-01T04:52:44.807Z,101581.48
2018-09-01T04:53:48.247Z,101580.19
2018-09-01T04:54:51.590Z,101594.73
2018-09-01T04:55:54.981Z,101588.96
2018-09-01T04:56:58.391Z,101592.05
2018-09-01T04:58:02.037Z,101593.19
2018-09-01T04:59:05.511Z,101597.79
2018-09-01T05:00:09.206Z,101594.92
2018-09-01T05:01:12.757Z,101595.91
2018-09-01T05:02:16.039Z,101593.11
2018-09-01T05:03:19.435Z,101595.73
2018-09-01T05:04:22.822Z,101594.73
2018-09-01T05:05:26.227Z,101600.23
2018-09-01T05:06:29.667Z,101607.61
2018-09-01T05:07:33.139Z,101607.87
2018-09-01T05:08:36.631Z,101606.86
2018-09-01T05:09:40.139Z,101603.16
2018-09-01T05:10:43.547Z,101608.94
2018-09-01T05:11:47.077Z,101610.94
2018-09-01T05:12:50.871Z,101609.15
2018-09-01T05:13:54.275Z,101605.00
2018-09-01T05:14:57.727Z,101612.99
2018-09-01T05:16:01.470Z,101608.86
2018-09-01T05:17:04.970Z,101621.02
2018-09-01T05:18:08.370Z,101617.86
2018-09-01T05:19:11.795Z,101612.09
2018-09-01T05:20:15.405Z,101615.60
2018-09-01T05:21:18.815Z,101606.01
2018-09-01T05:22:22.203Z,101614.41
2018-09-01T05:23:25.793Z,101603.50
2018-09-01T05:24:29.239Z,101613.03
2018-09-01T05:25:32.704Z,101614.16
2018-09-01T05:26:36.095Z,101616.11
2018-09-01T05:27:39.481Z,101611.47
2018-09-01T05:28:42.954Z,101618.17
2018-09-01T05:29:46.353Z,101622.56
2018-09-01T05:30:49.806Z,101615.35
2018-09-01T05:31:53.216Z,101619.17
2018-09-01T05:32:56.697Z,101625.77
2018-09-01T05:34:00.146Z,101620.17
2018-09-01T05:35:03.873Z,101624.65
2018-09-01T05:36:07.285Z,101625.77
2018-09-01T05:37:10.688Z,101629.66
2018-09-01T05:38:14.263Z,101629.21
2018-09-01T05:39:17.653Z,101629.27
2018-09-01T05:40:21.052Z,101631.04
2018-09-01T05:41:24.479Z,101630.84
2018-09-01T05:42:27.864Z,101632.84
2018-09-01T05:43:31.359Z,101628.77
2018-09-01T05:44:34.767Z,101627.94
2018-09-01T05:45:38.154Z,101629.89
2018-09-01T05:46:41.670Z,101628.51
2018-09-01T05:47:45.125Z,101636.47
2018-09-01T05:48:48.524Z,101632.59
2018-09-01T05:49:51.929Z,101638.35
2018-09-01T05:50:55.345Z,101634.16
2018-09-01T05:51:58.746Z,101640.49
2018-09-01T05:53:02.150Z,101639.11
2018-09-01T05:54:05.541Z,101639.63
2018-09-01T05:55:08.968Z,101642.63
2018-09-01T05:56:12.386Z,101644.01
2018-09-01T05:57:15.768Z,101645.64
2018-09-01T05:58:19.191Z,101647.33
2018-09-01T05:59:22.833Z,101646.77
2018-09-01T06:00:26.348Z,101646.77
2018-09-01T06:01:29.812Z,101653.09
2018-09-01T06:02:33.229Z,101648.40
2018-09-01T06:03:36.622Z,101652.79
2018-09-01T06:04:40.014Z,101653.34
2018-09-01T06:05:43.390Z,101651.72
2018-09-01T06:06:46.888Z,101647.89
2018-09-01T06:07:50.373Z,101655.60
2018-09-01T06:08:53.791Z,101655.91
2018-09-01T06:09:57.193Z,101658.66
2018-09-01T06:11:00.594Z,101661.17
2018-09-01T06:12:03.989Z,101662.86
2018-09-01T06:13:07.394Z,101662.61
2018-09-01T06:14:10.791Z,101659.90
2018-09-01T06:15:14.206Z,101661.86
2018-09-01T06:16:17.646Z,101664.11
2018-09-01T06:17:21.105Z,101666.36
2018-09-01T06:18:24.845Z,101658.09
2018-09-01T06:19:29.300Z,101662.23
2018-09-01T06:20:32.726Z,101666.05
2018-09-01T06:21:36.104Z,101656.20
2018-09-01T06:22:39.543Z,101659.72
2018-09-01T06:23:42.965Z,101665.49
2018-09-01T06:24:46.532Z,101667.43
2018-09-01T06:25:49.936Z,101665.75
2018-09-01T06:26:53.475Z,101672.89
2018-09-01T06:28:02.643Z,101669.88
2018-09-01T06:29:09.738Z,101672.64
2018-09-01T06:30:23.037Z,101675.39
2018-09-01T06:31:26.565Z,101669.12
2018-09-01T06:32:30.048Z,101663.97
2018-09-01T06:33:33.891Z,101667.23
2018-09-01T06:34:37.294Z,101663.77
2018-09-01T06:35:41.284Z,101661.59
2018-09-01T06:36:44.660Z,101666.91
2018-09-01T06:37:48.480Z,101668.94
2018-09-01T06:38:51.923Z,101669.77
2018-09-01T06:39:55.312Z,101668.64
2018-09-01T06:40:58.815Z,101670.27
2018-09-01T06:42:02.837Z,101667.20
2018-09-01T06:43:06.490Z,101673.80
2018-09-01T06:44:10.031Z,101669.05
2018-09-01T06:45:13.455Z,101666.02
2018-09-01T06:46:16.883Z,101669.58
2018-09-01T06:47:20.710Z,101668.72
2018-09-01T06:48:24.334Z,101665.95
2018-09-01T06:49:27.790Z,101670.34
2018-09-01T06:50:31.818Z,101670.96
2018-09-01T06:51:36.228Z,101675.94
2018-09-01T06:52:39.693Z,101669.05
2018-09-01T06:53:43.107Z,101668.79
2018-09-01T06:54:46.454Z,101672.67
2018-09-01T06:55:50.779Z,101672.92
2018-09-01T06:56:54.180Z,101674.30
2018-09-01T06:57:57.651Z,101671.55
2018-09-01T06:59:01.199Z,101667.41
2018-09-01T07:00:04.660Z,101667.66
2018-09-01T07:01:08.126Z,101670.42
2018-09-01T07:02:11.501Z,101671.80
2018-09-01T07:03:14.885Z,101667.11
2018-09-01T07:04:18.299Z,101669.30
2018-09-01T07:05:21.784Z,101672.34
2018-09-01T07:06:25.240Z,101674.17
2018-09-01T07:07:28.648Z,101674.17
2018-09-01T07:08:32.071Z,101675.81
2018-09-01T07:09:35.461Z,101672.19
2018-09-01T07:10:38.844Z,101676.27
2018-09-01T07:11:42.272Z,101677.03
2018-09-01T07:12:45.764Z,101678.33
2018-09-01T07:13:49.305Z,101681.84
2018-09-01T07:14:52.700Z,101681.99
2018-09-01T07:15:56.144Z,101685.56
2018-09-01T07:16:59.550Z,101688.05
2018-09-01T07:18:03.200Z,101686.36
2018-09-01T07:19:07.357Z,101686.81
2018-09-01T07:20:10.792Z,101691.82
2018-09-01T07:21:15.264Z,101690.70
2018-09-01T07:22:18.724Z,101695.65
2018-09-01T07:23:22.904Z,101693.14
2018-09-01T07:24:26.568Z,101692.33
2018-09-01T07:25:30.472Z,101691.77
2018-09-01T07:26:34.021Z,101692.83
2018-09-01T07:27:37.420Z,101693.96
2018-09-01T07:28:40.866Z,101695.59
2018-09-01T07:29:44.304Z,101694.22
2018-09-01T07:30:47.953Z,101692.27
2018-09-01T07:31:52.188Z,101695.03
2018-09-01T07:32:55.590Z,101698.05
2018-09-01T07:33:58.981Z,101698.35
2018-09-01T07:35:02.805Z,101702.74
2018-09-01T07:36:06.248Z,101698.35
2018-09-01T07:37:09.737Z,101698.61
2018-09-01T07:38:13.144Z,101696.09
2018-09-01T07:39:16.542Z,101699.67
2018-09-01T07:40:21.070Z,101703.00
2018-09-01T07:41:24.544Z,101696.97
2018-09-01T07:42:28.007Z,101705.19
2018-09-01T07:43:31.397Z,101703.50
2018-09-01T07:44:34.823Z,101703.50
2018-09-01T07:45:38.287Z,101704.06
2018-09-01T07:46:41.865Z,101703.50
2018-09-01T07:47:45.264Z,101707.64
2018-09-01T07:48:48.681Z,101712.56
2018-09-01T07:49:52.123Z,101710.91
2018-09-01T07:50:55.484Z,101713.13
2018-09-01T07:51:58.888Z,101709.00
2018-09-01T07:53:02.278Z,101716.70
2018-09-01T07:54:05.709Z,101711.44
2018-09-01T07:55:09.155Z,101716.14
2018-09-01T07:56:12.641Z,101715.33
2018-09-01T07:57:15.960Z,101717.78
2018-09-01T07:58:19.383Z,101719.97
2018-09-01T07:59:22.843Z,101721.61
2018-09-01T08:00:26.318Z,101720.53
2018-09-01T08:01:29.752Z,101723.23
2018-09-01T08:02:33.128Z,101721.05
2018-09-01T08:03:36.607Z,101719.09
2018-09-01T08:04:39.996Z,101720.23
2018-09-01T08:05:43.393Z,101727.63
2018-09-01T08:06:46.793Z,101729.01
2018-09-01T08:07:50.232Z,101726.50
2018-09-01T08:08:53.634Z,101726.50
2018-09-01T08:09:57.166Z,101727.88
2018-09-01T08:11:00.586Z,101715.83
2018-09-01T08:12:04.019Z,101726.76
2018-09-01T08:13:07.464Z,101722.11
2018-09-01T08:14:10.958Z,101734.16
2018-09-01T08:15:14.316Z,101725.33
2018-09-01T08:16:17.780Z,101731.41
2018-09-01T08:17:21.172Z,101720.37
2018-09-01T08:18:24.583Z,101727.52
2018-09-01T08:19:28.109Z,101725.58
2018-09-01T08:20:31.498Z,101722.81
2018-09-01T08:21:34.975Z,101720.88
2018-09-01T08:22:38.372Z,101720.88
2018-09-01T08:23:41.792Z,101723.89
2018-09-01T08:24:45.236Z,101734.36
2018-09-01T08:25:48.718Z,101728.02
2018-09-01T08:26:52.153Z,101725.52
2018-09-01T08:27:55.590Z,101724.95
2018-09-01T08:28:59.233Z,101724.95
2018-09-01T08:30:02.636Z,101727.44
2018-09-01T08:31:06.208Z,101728.81
2018-09-01T08:32:09.602Z,101728.81
2018-09-01T08:33:13.072Z,101731.83
2018-09-01T08:34:16.448Z,101729.63
2018-09-01T08:35:19.903Z,101733.20
2018-09-01T08:36:23.353Z,101732.08
2018-09-01T08:37:26.733Z,101729.32
2018-09-01T08:38:30.103Z,101739.23
2018-09-01T08:39:33.545Z,101743.38
2018-09-01T08:40:36.963Z,101737.29
2018-09-01T08:41:40.355Z,101743.62
2018-09-01T08:42:43.822Z,101733.20
2018-09-01T08:43:47.244Z,101743.62
2018-09-01T08:44:50.713Z,101748.02
2018-09-01T08:45:54.086Z,101744.44
2018-09-01T08:46:57.484Z,101749.39
2018-09-01T08:48:00.888Z,101746.64
2018-09-01T08:49:04.338Z,101746.08
2018-09-01T08:50:07.832Z,101746.13
2018-09-01T08:51:11.279Z,101748.02
2018-09-01T08:52:14.735Z,101748.27
2018-09-01T08:53:18.168Z,101755.17
2018-09-01T08:54:21.677Z,101760.94
2018-09-01T08:55:25.116Z,101757.05
2018-09-01T08:56:28.554Z,101756.80
2018-09-01T08:57:31.921Z,101754.30
2018-09-01T08:58:35.328Z,101755.67
2018-09-01T08:59:38.723Z,101754.30
2018-09-01T09:00:42.135Z,101752.91
2018-09-01T09:01:45.585Z,101758.13
2018-09-01T09:02:49.218Z,101756.18
2018-09-01T09:03:52.604Z,101757.56
2018-09-01T09:04:56.048Z,101757.87
2018-09-01T09:05:59.516Z,101756.18
2018-09-01T09:07:02.967Z,101760.61
2018-09-01T09:08:06.368Z,101756.47
2018-09-01T09:09:09.778Z,101757.84
2018-09-01T09:10:13.204Z,101756.18
2018-09-01T09:11:16.646Z,101758.09
2018-09-01T09:12:20.261Z,101758.91
2018-09-01T09:13:23.669Z,101753.40
2018-09-01T09:14:27.059Z,101752.58
2018-09-01T09:15:30.650Z,101757.53
2018-09-01T09:16:34.148Z,101759.20
2018-09-01T09:17:37.562Z,101755.87
2018-09-01T09:18:41.027Z,101750.64
2018-09-01T09:19:44.373Z,101765.53
2018-09-01T09:20:47.789Z,101756.13
2018-09-01T09:21:51.496Z,101760.27
2018-09-01T09:22:54.969Z,101760.52
2018-09-01T09:23:58.511Z,101758.33
2018-09-01T09:25:01.972Z,101757.52
2018-09-01T09:26:05.599Z,101767.42
2018-09-01T09:27:09.004Z,101761.91
2018-09-01T09:28:12.396Z,101756.95
2018-09-01T09:29:15.920Z,101755.82
2018-09-01T09:30:19.455Z,101753.88
2018-09-01T09:31:22.826Z,101759.40
2018-09-01T09:32:26.248Z,101754.69
2018-09-01T09:33:29.659Z,101756.08
2018-09-01T09:34:33.090Z,101754.12
2018-09-01T09:35:36.522Z,101755.52
2018-09-01T09:36:39.956Z,101755.52
2018-09-01T09:37:43.381Z,101751.38
2018-09-01T09:38:46.859Z,101750.24
2018-09-01T09:39:50.244Z,101754.38
2018-09-01T09:40:53.646Z,101754.38
2018-09-01T09:41:57.143Z,101754.64
2018-09-01T09:43:00.593Z,101754.89
2018-09-01T09:44:04.042Z,101749.38
2018-09-01T09:45:07.462Z,101741.45
2018-09-01T09:46:10.879Z,101745.23
2018-09-01T09:47:14.279Z,101749.38
2018-09-01T09:48:17.713Z,101747.98
2018-09-01T09:49:21.125Z,101743.54
2018-09-01T09:50:24.510Z,101752.38
2018-09-01T09:51:28.896Z,101749.63
2018-09-01T09:52:32.313Z,101748.50
2018-09-01T09:53:35.694Z,101754.02
2018-09-01T09:54:39.130Z,101753.45
2018-09-01T09:55:42.505Z,101753.45
2018-09-01T09:56:45.968Z,101753.39
2018-09-01T09:57:49.426Z,101751.77
2018-09-01T09:58:53.005Z,101756.47
2018-09-01T09:59:57.327Z,101748.44
2018-09-01T10:01:05.178Z,101751.20
2018-09-01T10:02:08.556Z,101746.75
2018-09-01T10:03:11.961Z,101749.25
2018-09-01T10:04:15.372Z,101754.20
2018-09-01T10:05:18.797Z,101748.69
2018-09-01T10:06:22.291Z,101752.02
2018-09-01T10:07:25.723Z,101753.39
2018-09-01T10:08:29.177Z,101750.63
2018-09-01T10:09:32.556Z,101752.02
2018-09-01T10:10:35.969Z,101745.11
2018-09-01T10:11:39.955Z,101750.63
2018-09-01T10:12:43.360Z,101740.97
2018-09-01T10:13:46.794Z,101749.00
2018-09-01T10:14:50.186Z,101745.93
2018-09-01T10:15:53.653Z,101742.61
2018-09-01T10:16:57.034Z,101740.41
2018-09-01T10:18:00.523Z,101741.23
2018-09-01T10:19:03.970Z,101742.61
2018-09-01T10:20:07.478Z,101746.75
2018-09-01T10:21:10.842Z,101748.94
2018-09-01T10:22:14.419Z,101743.98
2018-09-01T10:23:17.816Z,101750.89
2018-09-01T10:24:21.259Z,101749.50
2018-09-01T10:25:24.650Z,101747.00
2018-09-01T10:26:28.046Z,101746.19
2018-09-01T10:27:31.438Z,101744.80
2018-09-01T10:28:34.852Z,101744.80
2018-09-01T10:29:38.284Z,101742.33
2018-09-01T10:30:41.721Z,101741.48
2018-09-01T10:31:45.113Z,101738.19
2018-09-01T10:32:48.523Z,101736.80
2018-09-01T10:33:51.918Z,101744.77
2018-09-01T10:34:56.174Z,101741.20
2018-09-01T10:35:59.591Z,101739.81
2018-09-01T10:37:03.029Z,101743.14
2018-09-01T10:38:06.479Z,101738.78
2018-09-01T10:39:10.552Z,101740.38
2018-09-01T10:40:14.014Z,101739.00
2018-09-01T10:41:17.452Z,101742.58
2018-09-01T10:42:20.925Z,101748.35
2018-09-01T10:43:24.349Z,101745.34
2018-09-01T10:44:27.750Z,101750.30
2018-09-01T10:45:31.164Z,101733.98
2018-09-01T10:46:34.639Z,101734.55
2018-09-01T10:47:38.044Z,101747.78
2018-09-01T10:48:42.276Z,101745.84
2018-09-01T10:49:45.649Z,101738.94
2018-09-01T10:50:49.081Z,101744.72
2018-09-01T10:51:52.542Z,101738.37
2018-09-01T10:52:55.954Z,101735.95
2018-09-01T10:53:59.377Z,101746.91
2018-09-01T10:55:02.755Z,101741.77
2018-09-01T10:56:06.812Z,101735.87
2018-09-01T10:57:10.252Z,101731.73
2018-09-01T10:58:13.623Z,101731.73
2018-09-01T10:59:17.083Z,101731.42
2018-09-01T11:00:21.236Z,101729.47
2018-09-01T11:01:24.662Z,101727.53
2018-09-01T11:02:28.057Z,101717.05
2018-09-01T11:03:31.446Z,101732.62
2018-09-01T11:04:34.861Z,101726.00
2018-09-01T11:05:38.267Z,101723.43
2018-09-01T11:06:41.648Z,101725.63
2018-09-01T11:07:45.034Z,101730.89
2018-09-01T11:08:48.471Z,101729.45
2018-09-01T11:09:51.907Z,101727.56
2018-09-01T11:10:55.305Z,101729.52
2018-09-01T11:11:58.749Z,101730.89
2018-09-01T11:13:02.163Z,101732.02
2018-09-01T11:14:05.594Z,101731.23
2018-09-01T11:15:09.041Z,101734.56
2018-09-01T11:16:12.434Z,101727.72
2018-09-01T11:17:15.876Z,101732.99
2018-09-01T11:18:25.633Z,101735.19
2018-09-01T11:19:29.258Z,101724.70
2018-09-01T11:20:32.820Z,101726.72
2018-09-01T11:21:36.532Z,101730.48
2018-09-01T11:22:40.010Z,101727.16
2018-09-01T11:23:43.582Z,101721.07
2018-09-01T11:24:47.367Z,101723.83
2018-09-01T11:25:51.559Z,101716.93
2018-09-01T11:26:55.572Z,101717.74
2018-09-01T11:27:59.018Z,101712.79
2018-09-01T11:29:02.426Z,101720.50
2018-09-01T11:30:07.888Z,101720.56
2018-09-01T11:31:11.433Z,101720.76
2018-09-01T11:32:14.938Z,101713.30
2018-09-01T11:33:18.392Z,101712.73
2018-09-01T11:34:21.797Z,101714.67
2018-09-01T11:35:25.257Z,101722.70
2018-09-01T11:36:28.650Z,101716.59
2018-09-01T11:37:32.080Z,101713.27
2018-09-01T11:38:35.465Z,101714.95
2018-09-01T11:39:38.849Z,101721.30
2018-09-01T11:40:42.224Z,101707.77
2018-09-01T11:41:45.631Z,101725.15
2018-09-01T11:42:49.170Z,101720.20
2018-09-01T11:43:52.479Z,101717.44
2018-09-01T11:44:55.928Z,101718.25
2018-09-01T11:45:59.336Z,101714.67
2018-09-01T11:47:02.760Z,101713.60
2018-09-01T11:48:06.531Z,101716.05
2018-09-01T11:49:09.953Z,101718.00
2018-09-01T11:50:13.406Z,101710.09
2018-09-01T11:51:16.866Z,101717.18
2018-09-01T11:52:20.311Z,101710.84
2018-09-01T11:53:23.874Z,101715.55
2018-09-01T11:54:27.129Z,101717.18
2018-09-01T11:55:30.559Z,101708.39
2018-09-01T11:56:33.976Z,101708.14
2018-09-01T11:57:37.366Z,101708.14
2018-09-01T11:58:40.856Z,101705.38
2018-09-01T11:59:44.231Z,101699.61
2018-09-01T12:00:47.668Z,101702.38
2018-09-01T12:01:51.072Z,101692.96
2018-09-01T12:02:54.499Z,101697.16
2018-09-01T12:03:58.015Z,101696.79
2018-09-01T12:05:01.395Z,101708.65